sensor_id;sensor_type;location;lat;lon;timestamp;temperature;humidity
22114;DHT22;11223;49.968;9.062;2022-10-31T00:01:00;10.70;99.90
22114;DHT22;11223;49.968;9.062;2022-10-31T00:03:26;10.60;99.90
22114;DHT22;11223;49.968;9.062;2022-10-31T00:05:52;10.60;99.90
22114;DHT22;11223;49.968;9.062;2022-10-31T00:08:18;10.60;99.90
22114;DHT22;11223;49.968;9.062;2022-10-31T00:10:45;10.60;99.90
22114;DHT22;11223;49.968;9.062;2022-10-31T00:13:11;10.50;99.90
22114;DHT22;11223;49.968;9.062;2022-10-31T00:15:38;10.50;99.90
22114;DHT22;11223;49.968;9.062;2022-10-31T00:18:06;10.50;99.90
22114;DHT22;11223;49.968;9.062;2022-10-31T00:20:32;10.50;99.90
22114;DHT22;11223;49.968;9.062;2022-10-31T00:22:58;10.50;99.90
22114;DHT22;11223;49.968;9.062;2022-10-31T00:25:25;10.50;99.90
22114;DHT22;11223;49.968;9.062;2022-10-31T00:27:51;10.50;99.90
22114;DHT22;11223;49.968;9.062;2022-10-31T00:30:16;10.50;99.90
22114;DHT22;11223;49.968;9.062;2022-10-31T00:32:42;10.50;99.90
22114;DHT22;11223;49.968;9.062;2022-10-31T00:35:08;10.40;99.90
22114;DHT22;11223;49.968;9.062;2022-10-31T00:37:33;10.40;99.90
22114;DHT22;11223;49.968;9.062;2022-10-31T00:39:59;10.40;99.90
22114;DHT22;11223;49.968;9.062;2022-10-31T00:42:24;10.40;99.90
22114;DHT22;11223;49.968;9.062;2022-10-31T00:44:50;10.40;99.90
22114;DHT22;11223;49.968;9.062;2022-10-31T00:47:15;10.30;99.90
22114;DHT22;11223;49.968;9.062;2022-10-31T00:49:41;10.40;99.90
22114;DHT22;11223;49.968;9.062;2022-10-31T00:52:07;10.30;99.90
22114;DHT22;11223;49.968;9.062;2022-10-31T00:54:32;10.30;99.90
22114;DHT22;11223;49.968;9.062;2022-10-31T00:56:58;10.30;99.90
22114;DHT22;11223;49.968;9.062;2022-10-31T00:59:24;10.30;99.90
22114;DHT22;11223;49.968;9.062;2022-10-31T01:01:49;10.20;99.90
22114;DHT22;11223;49.968;9.062;2022-10-31T01:04:15;10.20;99.90
22114;DHT22;11223;49.968;9.062;2022-10-31T01:06:40;10.20;99.90
22114;DHT22;11223;49.968;9.062;2022-10-31T01:09:06;10.20;99.90
22114;DHT22;11223;49.968;9.062;2022-10-31T01:11:32;10.20;99.90
22114;DHT22;11223;49.968;9.062;2022-10-31T01:13:58;10.20;99.90
22114;DHT22;11223;49.968;9.062;2022-10-31T01:16:25;10.10;99.90
22114;DHT22;11223;49.968;9.062;2022-10-31T01:18:52;10.20;99.90
22114;DHT22;11223;49.968;9.062;2022-10-31T01:21:22;10.10;99.90
22114;DHT22;11223;49.968;9.062;2022-10-31T01:23:49;10.10;99.90
22114;DHT22;11223;49.968;9.062;2022-10-31T01:26:29;10.10;99.90
22114;DHT22;11223;49.968;9.062;2022-10-31T01:29:07;10.10;99.90
22114;DHT22;11223;49.968;9.062;2022-10-31T01:31:36;10.00;99.90
22114;DHT22;11223;49.968;9.062;2022-10-31T01:34:02;10.00;99.90
22114;DHT22;11223;49.968;9.062;2022-10-31T01:36:31;10.00;99.90
22114;DHT22;11223;49.968;9.062;2022-10-31T01:39:02;9.90;99.90
22114;DHT22;11223;49.968;9.062;2022-10-31T01:41:31;9.90;99.90
22114;DHT22;11223;49.968;9.062;2022-10-31T01:43:59;9.90;99.90
22114;DHT22;11223;49.968;9.062;2022-10-31T01:46:31;9.90;99.90
22114;DHT22;11223;49.968;9.062;2022-10-31T01:49:01;9.90;99.90
22114;DHT22;11223;49.968;9.062;2022-10-31T01:51:35;9.80;99.90
22114;DHT22;11223;49.968;9.062;2022-10-31T01:54:05;9.80;99.90
22114;DHT22;11223;49.968;9.062;2022-10-31T01:56:34;9.70;99.90
22114;DHT22;11223;49.968;9.062;2022-10-31T01:59:03;9.70;99.90
22114;DHT22;11223;49.968;9.062;2022-10-31T02:01:29;9.70;99.90
22114;DHT22;11223;49.968;9.062;2022-10-31T02:03:55;9.70;99.90
22114;DHT22;11223;49.968;9.062;2022-10-31T02:06:36;9.60;99.90
22114;DHT22;11223;49.968;9.062;2022-10-31T02:09:05;9.60;99.90
22114;DHT22;11223;49.968;9.062;2022-10-31T02:11:31;9.60;99.90
22114;DHT22;11223;49.968;9.062;2022-10-31T02:13:59;9.60;99.90
22114;DHT22;11223;49.968;9.062;2022-10-31T02:16:26;9.50;99.90
22114;DHT22;11223;49.968;9.062;2022-10-31T02:18:51;9.50;99.90
22114;DHT22;11223;49.968;9.062;2022-10-31T02:21:38;9.50;99.90
22114;DHT22;11223;49.968;9.062;2022-10-31T02:24:23;9.50;99.90
22114;DHT22;11223;49.968;9.062;2022-10-31T02:27:29;9.50;99.90
22114;DHT22;11223;49.968;9.062;2022-10-31T02:32:27;9.50;99.90
22114;DHT22;11223;49.968;9.062;2022-10-31T02:35:21;9.50;99.90
22114;DHT22;11223;49.968;9.062;2022-10-31T02:38:26;9.50;99.90
22114;DHT22;11223;49.968;9.062;2022-10-31T02:44:00;9.50;99.90
22114;DHT22;11223;49.968;9.062;2022-10-31T02:46:44;9.50;99.90
22114;DHT22;11223;49.968;9.062;2022-10-31T02:52:00;9.50;99.90
22114;DHT22;11223;49.968;9.062;2022-10-31T02:54:27;9.50;99.90
22114;DHT22;11223;49.968;9.062;2022-10-31T02:57:00;9.50;99.90
22114;DHT22;11223;49.968;9.062;2022-10-31T02:59:28;9.50;99.90
22114;DHT22;11223;49.968;9.062;2022-10-31T03:04:53;9.50;99.90
22114;DHT22;11223;49.968;9.062;2022-10-31T03:13:08;9.60;99.90
22114;DHT22;11223;49.968;9.062;2022-10-31T03:15:37;9.60;99.90
22114;DHT22;11223;49.968;9.062;2022-10-31T03:18:09;9.70;99.90
22114;DHT22;11223;49.968;9.062;2022-10-31T03:21:06;9.70;99.90
22114;DHT22;11223;49.968;9.062;2022-10-31T03:23:30;9.70;99.90
22114;DHT22;11223;49.968;9.062;2022-10-31T03:25:58;9.70;99.90
22114;DHT22;11223;49.968;9.062;2022-10-31T03:28:34;9.70;99.90
22114;DHT22;11223;49.968;9.062;2022-10-31T03:31:04;9.70;99.90
22114;DHT22;11223;49.968;9.062;2022-10-31T03:33:34;9.70;99.90
22114;DHT22;11223;49.968;9.062;2022-10-31T03:36:03;9.70;99.90
22114;DHT22;11223;49.968;9.062;2022-10-31T03:38:32;9.60;99.90
22114;DHT22;11223;49.968;9.062;2022-10-31T03:41:00;9.60;99.90
22114;DHT22;11223;49.968;9.062;2022-10-31T03:43:30;9.50;99.90
22114;DHT22;11223;49.968;9.062;2022-10-31T03:45:58;9.50;99.90
22114;DHT22;11223;49.968;9.062;2022-10-31T03:48:25;9.50;99.90
22114;DHT22;11223;49.968;9.062;2022-10-31T03:53:25;9.50;99.90
22114;DHT22;11223;49.968;9.062;2022-10-31T03:56:09;9.50;99.90
22114;DHT22;11223;49.968;9.062;2022-10-31T03:58:53;9.50;99.90
22114;DHT22;11223;49.968;9.062;2022-10-31T04:01:21;9.50;99.90
22114;DHT22;11223;49.968;9.062;2022-10-31T04:03:48;9.50;99.90
22114;DHT22;11223;49.968;9.062;2022-10-31T04:06:16;9.50;99.90
22114;DHT22;11223;49.968;9.062;2022-10-31T04:08:57;9.40;99.90
22114;DHT22;11223;49.968;9.062;2022-10-31T04:11:27;9.40;99.90
22114;DHT22;11223;49.968;9.062;2022-10-31T04:13:54;9.40;99.90
22114;DHT22;11223;49.968;9.062;2022-10-31T04:16:23;9.30;99.90
22114;DHT22;11223;49.968;9.062;2022-10-31T04:18:49;9.30;99.90
22114;DHT22;11223;49.968;9.062;2022-10-31T04:21:14;9.30;99.90
22114;DHT22;11223;49.968;9.062;2022-10-31T04:23:40;9.30;99.90
22114;DHT22;11223;49.968;9.062;2022-10-31T04:26:06;9.30;99.90
22114;DHT22;11223;49.968;9.062;2022-10-31T04:28:31;9.30;99.90
22114;DHT22;11223;49.968;9.062;2022-10-31T04:30:59;9.30;99.90
22114;DHT22;11223;49.968;9.062;2022-10-31T04:33:24;9.30;99.90
22114;DHT22;11223;49.968;9.062;2022-10-31T04:35:50;9.30;99.90
22114;DHT22;11223;49.968;9.062;2022-10-31T04:38:15;9.30;99.90
22114;DHT22;11223;49.968;9.062;2022-10-31T04:40:41;9.30;99.90
22114;DHT22;11223;49.968;9.062;2022-10-31T04:43:07;9.40;99.90
22114;DHT22;11223;49.968;9.062;2022-10-31T04:45:32;9.40;99.90
22114;DHT22;11223;49.968;9.062;2022-10-31T04:47:58;9.40;99.90
22114;DHT22;11223;49.968;9.062;2022-10-31T04:50:23;9.40;99.90
22114;DHT22;11223;49.968;9.062;2022-10-31T04:52:49;9.40;99.90
22114;DHT22;11223;49.968;9.062;2022-10-31T04:55:15;9.50;99.90
22114;DHT22;11223;49.968;9.062;2022-10-31T04:57:46;9.50;99.90
22114;DHT22;11223;49.968;9.062;2022-10-31T05:00:13;9.50;99.90
22114;DHT22;11223;49.968;9.062;2022-10-31T05:02:56;9.50;99.90
22114;DHT22;11223;49.968;9.062;2022-10-31T05:05:26;9.50;99.90
22114;DHT22;11223;49.968;9.062;2022-10-31T05:07:52;9.50;99.90
22114;DHT22;11223;49.968;9.062;2022-10-31T05:10:23;9.40;99.90
22114;DHT22;11223;49.968;9.062;2022-10-31T05:12:51;9.40;99.90
22114;DHT22;11223;49.968;9.062;2022-10-31T05:15:17;9.40;99.90
22114;DHT22;11223;49.968;9.062;2022-10-31T05:17:44;9.40;99.90
22114;DHT22;11223;49.968;9.062;2022-10-31T05:20:11;9.40;99.90
22114;DHT22;11223;49.968;9.062;2022-10-31T05:22:37;9.40;99.90
22114;DHT22;11223;49.968;9.062;2022-10-31T05:25:03;9.40;99.90
22114;DHT22;11223;49.968;9.062;2022-10-31T05:27:28;9.40;99.90
22114;DHT22;11223;49.968;9.062;2022-10-31T05:29:54;9.30;99.90
22114;DHT22;11223;49.968;9.062;2022-10-31T05:32:20;9.40;99.90
22114;DHT22;11223;49.968;9.062;2022-10-31T05:34:45;9.30;99.90
22114;DHT22;11223;49.968;9.062;2022-10-31T05:37:11;9.30;99.90
22114;DHT22;11223;49.968;9.062;2022-10-31T05:39:36;9.30;99.90
22114;DHT22;11223;49.968;9.062;2022-10-31T05:42:02;9.30;99.90
22114;DHT22;11223;49.968;9.062;2022-10-31T05:44:28;9.30;99.90
22114;DHT22;11223;49.968;9.062;2022-10-31T05:46:53;9.20;99.90
22114;DHT22;11223;49.968;9.062;2022-10-31T05:49:19;9.20;99.90
22114;DHT22;11223;49.968;9.062;2022-10-31T05:51:44;9.20;99.90
22114;DHT22;11223;49.968;9.062;2022-10-31T05:54:10;9.20;99.90
22114;DHT22;11223;49.968;9.062;2022-10-31T05:56:35;9.10;99.90
22114;DHT22;11223;49.968;9.062;2022-10-31T05:59:01;9.10;99.90
22114;DHT22;11223;49.968;9.062;2022-10-31T06:01:27;9.10;99.90
22114;DHT22;11223;49.968;9.062;2022-10-31T06:03:52;9.00;99.90
22114;DHT22;11223;49.968;9.062;2022-10-31T06:06:18;9.00;99.90
22114;DHT22;11223;49.968;9.062;2022-10-31T06:08:43;9.00;99.90
22114;DHT22;11223;49.968;9.062;2022-10-31T06:11:09;9.00;99.90
22114;DHT22;11223;49.968;9.062;2022-10-31T06:13:34;9.00;99.90
22114;DHT22;11223;49.968;9.062;2022-10-31T06:16:00;9.00;99.90
22114;DHT22;11223;49.968;9.062;2022-10-31T06:18:26;9.00;99.90
22114;DHT22;11223;49.968;9.062;2022-10-31T06:20:51;9.00;99.90
22114;DHT22;11223;49.968;9.062;2022-10-31T06:23:17;9.00;99.90
22114;DHT22;11223;49.968;9.062;2022-10-31T06:25:42;9.00;99.90
22114;DHT22;11223;49.968;9.062;2022-10-31T06:28:08;9.00;99.90
22114;DHT22;11223;49.968;9.062;2022-10-31T06:30:33;9.00;99.90
22114;DHT22;11223;49.968;9.062;2022-10-31T06:33:03;9.00;99.90
22114;DHT22;11223;49.968;9.062;2022-10-31T06:35:29;9.00;99.90
22114;DHT22;11223;49.968;9.062;2022-10-31T06:37:55;9.00;99.90
22114;DHT22;11223;49.968;9.062;2022-10-31T06:40:21;9.00;99.90
22114;DHT22;11223;49.968;9.062;2022-10-31T06:42:47;9.00;99.90
22114;DHT22;11223;49.968;9.062;2022-10-31T06:45:12;9.00;99.90
22114;DHT22;11223;49.968;9.062;2022-10-31T06:47:38;9.00;99.90
22114;DHT22;11223;49.968;9.062;2022-10-31T06:50:04;9.00;99.90
22114;DHT22;11223;49.968;9.062;2022-10-31T06:52:30;9.00;99.90
22114;DHT22;11223;49.968;9.062;2022-10-31T06:54:55;9.10;99.90
22114;DHT22;11223;49.968;9.062;2022-10-31T06:57:21;9.10;99.90
22114;DHT22;11223;49.968;9.062;2022-10-31T06:59:46;9.20;99.90
22114;DHT22;11223;49.968;9.062;2022-10-31T07:02:12;9.20;99.90
22114;DHT22;11223;49.968;9.062;2022-10-31T07:04:38;9.20;99.90
22114;DHT22;11223;49.968;9.062;2022-10-31T07:07:03;9.30;99.90
22114;DHT22;11223;49.968;9.062;2022-10-31T07:09:29;9.30;99.90
22114;DHT22;11223;49.968;9.062;2022-10-31T07:11:54;9.30;99.90
22114;DHT22;11223;49.968;9.062;2022-10-31T07:14:20;9.30;99.90
22114;DHT22;11223;49.968;9.062;2022-10-31T07:16:49;9.40;99.90
22114;DHT22;11223;49.968;9.062;2022-10-31T07:19:16;9.40;99.90
22114;DHT22;11223;49.968;9.062;2022-10-31T07:21:41;9.60;99.90
22114;DHT22;11223;49.968;9.062;2022-10-31T07:24:07;9.60;99.90
22114;DHT22;11223;49.968;9.062;2022-10-31T07:26:32;9.80;99.90
22114;DHT22;11223;49.968;9.062;2022-10-31T07:28:58;9.90;99.90
22114;DHT22;11223;49.968;9.062;2022-10-31T07:31:25;10.00;99.90
22114;DHT22;11223;49.968;9.062;2022-10-31T07:33:51;10.20;99.90
22114;DHT22;11223;49.968;9.062;2022-10-31T07:36:17;10.30;99.90
22114;DHT22;11223;49.968;9.062;2022-10-31T07:38:42;10.40;99.90
22114;DHT22;11223;49.968;9.062;2022-10-31T07:41:08;10.60;99.90
22114;DHT22;11223;49.968;9.062;2022-10-31T07:43:35;10.70;99.90
22114;DHT22;11223;49.968;9.062;2022-10-31T07:46:00;10.80;99.90
22114;DHT22;11223;49.968;9.062;2022-10-31T07:48:26;10.90;99.90
22114;DHT22;11223;49.968;9.062;2022-10-31T07:50:51;11.00;99.90
22114;DHT22;11223;49.968;9.062;2022-10-31T07:53:17;11.10;99.90
22114;DHT22;11223;49.968;9.062;2022-10-31T07:55:43;11.20;99.90
22114;DHT22;11223;49.968;9.062;2022-10-31T07:58:11;11.40;99.90
22114;DHT22;11223;49.968;9.062;2022-10-31T08:00:39;11.50;99.90
22114;DHT22;11223;49.968;9.062;2022-10-31T08:03:07;11.70;99.90
22114;DHT22;11223;49.968;9.062;2022-10-31T08:05:33;11.80;99.90
22114;DHT22;11223;49.968;9.062;2022-10-31T08:07:59;12.00;99.90
22114;DHT22;11223;49.968;9.062;2022-10-31T08:10:26;12.30;99.90
22114;DHT22;11223;49.968;9.062;2022-10-31T08:13:00;12.60;99.90
22114;DHT22;11223;49.968;9.062;2022-10-31T08:15:26;12.90;99.90
22114;DHT22;11223;49.968;9.062;2022-10-31T08:17:52;13.10;99.90
22114;DHT22;11223;49.968;9.062;2022-10-31T08:20:19;13.40;99.90
22114;DHT22;11223;49.968;9.062;2022-10-31T08:22:56;13.50;99.90
22114;DHT22;11223;49.968;9.062;2022-10-31T08:25:22;13.60;99.90
22114;DHT22;11223;49.968;9.062;2022-10-31T08:27:52;13.90;99.90
22114;DHT22;11223;49.968;9.062;2022-10-31T08:30:19;14.00;99.90
22114;DHT22;11223;49.968;9.062;2022-10-31T08:32:46;14.20;99.90
22114;DHT22;11223;49.968;9.062;2022-10-31T08:35:12;14.30;99.90
22114;DHT22;11223;49.968;9.062;2022-10-31T08:37:37;14.40;99.90
22114;DHT22;11223;49.968;9.062;2022-10-31T08:40:03;14.40;99.90
22114;DHT22;11223;49.968;9.062;2022-10-31T08:42:29;14.40;99.90
22114;DHT22;11223;49.968;9.062;2022-10-31T08:44:55;14.60;99.90
22114;DHT22;11223;49.968;9.062;2022-10-31T08:47:20;14.80;99.90
22114;DHT22;11223;49.968;9.062;2022-10-31T08:49:46;15.20;99.90
22114;DHT22;11223;49.968;9.062;2022-10-31T08:52:11;15.40;99.90
22114;DHT22;11223;49.968;9.062;2022-10-31T08:54:37;15.80;99.90
22114;DHT22;11223;49.968;9.062;2022-10-31T08:57:03;16.10;99.90
22114;DHT22;11223;49.968;9.062;2022-10-31T08:59:28;16.40;99.90
22114;DHT22;11223;49.968;9.062;2022-10-31T09:01:54;16.60;99.90
22114;DHT22;11223;49.968;9.062;2022-10-31T09:04:19;16.80;99.90
22114;DHT22;11223;49.968;9.062;2022-10-31T09:06:45;16.80;99.90
22114;DHT22;11223;49.968;9.062;2022-10-31T09:09:10;17.00;99.90
22114;DHT22;11223;49.968;9.062;2022-10-31T09:11:36;17.10;99.90
22114;DHT22;11223;49.968;9.062;2022-10-31T09:14:02;17.20;99.90
22114;DHT22;11223;49.968;9.062;2022-10-31T09:16:27;17.20;99.90
22114;DHT22;11223;49.968;9.062;2022-10-31T09:18:53;17.20;99.90
22114;DHT22;11223;49.968;9.062;2022-10-31T09:21:18;17.20;99.90
22114;DHT22;11223;49.968;9.062;2022-10-31T09:23:44;17.30;99.90
22114;DHT22;11223;49.968;9.062;2022-10-31T09:26:09;17.30;99.90
22114;DHT22;11223;49.968;9.062;2022-10-31T09:28:35;17.30;99.90
22114;DHT22;11223;49.968;9.062;2022-10-31T09:31:01;17.30;99.90
22114;DHT22;11223;49.968;9.062;2022-10-31T09:33:26;17.30;99.90
22114;DHT22;11223;49.968;9.062;2022-10-31T09:35:52;17.40;99.90
22114;DHT22;11223;49.968;9.062;2022-10-31T09:38:20;17.50;99.90
22114;DHT22;11223;49.968;9.062;2022-10-31T09:40:49;17.60;99.90
22114;DHT22;11223;49.968;9.062;2022-10-31T09:51:33;17.70;99.90
22114;DHT22;11223;49.968;9.062;2022-10-31T09:54:16;17.70;99.90
22114;DHT22;11223;49.968;9.062;2022-10-31T09:56:43;17.70;99.90
22114;DHT22;11223;49.968;9.062;2022-10-31T09:59:21;17.60;99.90
22114;DHT22;11223;49.968;9.062;2022-10-31T10:06:54;17.90;99.90
22114;DHT22;11223;49.968;9.062;2022-10-31T10:09:24;17.90;99.90
22114;DHT22;11223;49.968;9.062;2022-10-31T10:20:42;17.70;99.90
22114;DHT22;11223;49.968;9.062;2022-10-31T10:26:21;17.70;99.90
22114;DHT22;11223;49.968;9.062;2022-10-31T10:28:50;17.70;99.90
22114;DHT22;11223;49.968;9.062;2022-10-31T10:31:23;17.70;99.90
22114;DHT22;11223;49.968;9.062;2022-10-31T10:34:18;17.70;99.90
22114;DHT22;11223;49.968;9.062;2022-10-31T10:36:49;17.80;99.90
22114;DHT22;11223;49.968;9.062;2022-10-31T10:39:20;17.90;99.90
22114;DHT22;11223;49.968;9.062;2022-10-31T10:41:49;18.20;99.90
22114;DHT22;11223;49.968;9.062;2022-10-31T10:44:41;18.40;99.90
22114;DHT22;11223;49.968;9.062;2022-10-31T10:47:32;18.40;99.90
22114;DHT22;11223;49.968;9.062;2022-10-31T10:50:22;18.40;99.90
22114;DHT22;11223;49.968;9.062;2022-10-31T10:56:13;18.40;99.90
22114;DHT22;11223;49.968;9.062;2022-10-31T10:58:40;18.30;99.90
22114;DHT22;11223;49.968;9.062;2022-10-31T11:01:12;18.30;99.90
22114;DHT22;11223;49.968;9.062;2022-10-31T11:03:39;18.30;99.90
22114;DHT22;11223;49.968;9.062;2022-10-31T11:06:19;18.20;99.90
22114;DHT22;11223;49.968;9.062;2022-10-31T11:08:48;18.30;99.90
22114;DHT22;11223;49.968;9.062;2022-10-31T11:13:44;18.30;99.90
22114;DHT22;11223;49.968;9.062;2022-10-31T11:16:14;18.20;99.90
22114;DHT22;11223;49.968;9.062;2022-10-31T11:18:45;18.10;99.90
22114;DHT22;11223;49.968;9.062;2022-10-31T11:21:24;18.10;99.90
22114;DHT22;11223;49.968;9.062;2022-10-31T11:26:37;18.00;99.90
22114;DHT22;11223;49.968;9.062;2022-10-31T11:29:04;18.00;99.90
22114;DHT22;11223;49.968;9.062;2022-10-31T11:31:32;18.00;99.90
22114;DHT22;11223;49.968;9.062;2022-10-31T11:34:05;18.00;99.90
22114;DHT22;11223;49.968;9.062;2022-10-31T11:36:39;18.00;99.90
22114;DHT22;11223;49.968;9.062;2022-10-31T11:39:19;18.00;99.90
22114;DHT22;11223;49.968;9.062;2022-10-31T11:41:46;17.90;99.90
22114;DHT22;11223;49.968;9.062;2022-10-31T11:44:22;17.90;99.90
22114;DHT22;11223;49.968;9.062;2022-10-31T11:46:52;17.90;99.90
22114;DHT22;11223;49.968;9.062;2022-10-31T11:49:46;17.90;99.90
22114;DHT22;11223;49.968;9.062;2022-10-31T11:52:30;17.90;99.90
22114;DHT22;11223;49.968;9.062;2022-10-31T11:57:46;17.90;99.90
22114;DHT22;11223;49.968;9.062;2022-10-31T12:00:38;17.90;99.90
22114;DHT22;11223;49.968;9.062;2022-10-31T12:06:18;17.90;99.90
22114;DHT22;11223;49.968;9.062;2022-10-31T12:08:46;18.00;99.90
22114;DHT22;11223;49.968;9.062;2022-10-31T12:11:36;18.00;99.90
22114;DHT22;11223;49.968;9.062;2022-10-31T12:22:42;17.90;99.90
22114;DHT22;11223;49.968;9.062;2022-10-31T12:28:11;17.80;99.90
22114;DHT22;11223;49.968;9.062;2022-10-31T12:34:26;17.70;99.90
22114;DHT22;11223;49.968;9.062;2022-10-31T12:40:05;17.80;99.90
22114;DHT22;11223;49.968;9.062;2022-10-31T12:45:18;17.90;99.90
22114;DHT22;11223;49.968;9.062;2022-10-31T13:02:13;18.10;99.90
22114;DHT22;11223;49.968;9.062;2022-10-31T13:04:53;18.00;99.90
22114;DHT22;11223;49.968;9.062;2022-10-31T13:07:28;18.00;99.90
22114;DHT22;11223;49.968;9.062;2022-10-31T13:10:00;18.00;99.90
22114;DHT22;11223;49.968;9.062;2022-10-31T13:12:28;17.90;99.90
22114;DHT22;11223;49.968;9.062;2022-10-31T13:14:58;17.90;99.90
22114;DHT22;11223;49.968;9.062;2022-10-31T13:17:38;17.90;99.90
22114;DHT22;11223;49.968;9.062;2022-10-31T13:20:42;17.90;99.90
22114;DHT22;11223;49.968;9.062;2022-10-31T13:25:44;17.80;99.90
22114;DHT22;11223;49.968;9.062;2022-10-31T13:28:35;17.80;99.90
22114;DHT22;11223;49.968;9.062;2022-10-31T13:31:01;17.80;99.90
22114;DHT22;11223;49.968;9.062;2022-10-31T13:33:33;17.80;99.90
22114;DHT22;11223;49.968;9.062;2022-10-31T13:36:11;17.80;99.90
22114;DHT22;11223;49.968;9.062;2022-10-31T13:38:45;17.80;99.90
22114;DHT22;11223;49.968;9.062;2022-10-31T13:41:32;17.80;99.90
22114;DHT22;11223;49.968;9.062;2022-10-31T13:48:59;17.50;99.90
22114;DHT22;11223;49.968;9.062;2022-10-31T13:51:30;17.50;99.90
22114;DHT22;11223;49.968;9.062;2022-10-31T13:53:59;17.40;99.90
22114;DHT22;11223;49.968;9.062;2022-10-31T13:56:31;17.30;99.90
22114;DHT22;11223;49.968;9.062;2022-10-31T14:01:25;17.30;99.90
22114;DHT22;11223;49.968;9.062;2022-10-31T14:04:13;17.30;99.90
22114;DHT22;11223;49.968;9.062;2022-10-31T14:06:56;17.20;99.90
22114;DHT22;11223;49.968;9.062;2022-10-31T14:10:02;17.20;99.90
22114;DHT22;11223;49.968;9.062;2022-10-31T14:12:38;17.10;99.90
22114;DHT22;11223;49.968;9.062;2022-10-31T14:15:17;17.10;99.90
22114;DHT22;11223;49.968;9.062;2022-10-31T14:17:59;17.00;99.90
22114;DHT22;11223;49.968;9.062;2022-10-31T14:26:19;16.90;99.90
22114;DHT22;11223;49.968;9.062;2022-10-31T14:28:46;16.90;99.90
22114;DHT22;11223;49.968;9.062;2022-10-31T14:33:56;16.80;99.90
22114;DHT22;11223;49.968;9.062;2022-10-31T14:36:34;16.80;99.90
22114;DHT22;11223;49.968;9.062;2022-10-31T14:39:26;16.80;99.90
22114;DHT22;11223;49.968;9.062;2022-10-31T14:42:30;16.70;99.90
22114;DHT22;11223;49.968;9.062;2022-10-31T14:51:10;16.60;99.90
22114;DHT22;11223;49.968;9.062;2022-10-31T14:53:52;16.60;99.90
22114;DHT22;11223;49.968;9.062;2022-10-31T14:56:25;16.70;99.90
22114;DHT22;11223;49.968;9.062;2022-10-31T14:58:53;16.80;99.90
22114;DHT22;11223;49.968;9.062;2022-10-31T15:01:32;16.90;99.90
22114;DHT22;11223;49.968;9.062;2022-10-31T15:04:21;16.90;99.90
22114;DHT22;11223;49.968;9.062;2022-10-31T15:06:50;16.90;99.90
22114;DHT22;11223;49.968;9.062;2022-10-31T15:09:26;16.90;99.90
22114;DHT22;11223;49.968;9.062;2022-10-31T15:11:52;17.00;99.90
22114;DHT22;11223;49.968;9.062;2022-10-31T15:14:27;16.90;99.90
22114;DHT22;11223;49.968;9.062;2022-10-31T15:16:53;16.90;99.90
22114;DHT22;11223;49.968;9.062;2022-10-31T15:19:25;16.90;99.90
22114;DHT22;11223;49.968;9.062;2022-10-31T15:21:53;16.70;99.90
22114;DHT22;11223;49.968;9.062;2022-10-31T15:24:20;16.70;99.90
22114;DHT22;11223;49.968;9.062;2022-10-31T15:26:48;16.60;99.90
22114;DHT22;11223;49.968;9.062;2022-10-31T15:29:21;16.50;99.90
22114;DHT22;11223;49.968;9.062;2022-10-31T15:32:24;16.40;99.90
22114;DHT22;11223;49.968;9.062;2022-10-31T15:34:51;16.20;99.90
22114;DHT22;11223;49.968;9.062;2022-10-31T15:37:22;16.10;99.90
22114;DHT22;11223;49.968;9.062;2022-10-31T15:39:49;16.00;99.90
22114;DHT22;11223;49.968;9.062;2022-10-31T15:44:53;15.70;99.90
22114;DHT22;11223;49.968;9.062;2022-10-31T15:47:22;15.70;99.90
22114;DHT22;11223;49.968;9.062;2022-10-31T15:49:54;15.50;99.90
22114;DHT22;11223;49.968;9.062;2022-10-31T15:52:40;15.40;99.90
22114;DHT22;11223;49.968;9.062;2022-10-31T15:55:19;15.30;99.90
22114;DHT22;11223;49.968;9.062;2022-10-31T15:57:48;15.20;99.90
22114;DHT22;11223;49.968;9.062;2022-10-31T16:00:41;15.10;99.90
22114;DHT22;11223;49.968;9.062;2022-10-31T16:03:32;15.00;99.90
22114;DHT22;11223;49.968;9.062;2022-10-31T16:06:00;14.90;99.90
22114;DHT22;11223;49.968;9.062;2022-10-31T16:13:35;14.70;99.90
22114;DHT22;11223;49.968;9.062;2022-10-31T16:16:09;14.60;99.90
22114;DHT22;11223;49.968;9.062;2022-10-31T16:18:37;14.60;99.90
22114;DHT22;11223;49.968;9.062;2022-10-31T16:21:04;14.60;99.90
22114;DHT22;11223;49.968;9.062;2022-10-31T16:23:31;14.60;99.90
22114;DHT22;11223;49.968;9.062;2022-10-31T16:25:57;14.50;99.90
22114;DHT22;11223;49.968;9.062;2022-10-31T16:28:25;14.50;99.90
22114;DHT22;11223;49.968;9.062;2022-10-31T16:30:55;14.40;99.90
22114;DHT22;11223;49.968;9.062;2022-10-31T16:33:30;14.50;99.90
22114;DHT22;11223;49.968;9.062;2022-10-31T16:35:59;14.40;99.90
22114;DHT22;11223;49.968;9.062;2022-10-31T16:38:27;14.40;99.90
22114;DHT22;11223;49.968;9.062;2022-10-31T16:40:53;14.50;99.90
22114;DHT22;11223;49.968;9.062;2022-10-31T16:43:21;14.50;99.90
22114;DHT22;11223;49.968;9.062;2022-10-31T16:45:51;14.50;99.90
22114;DHT22;11223;49.968;9.062;2022-10-31T16:48:19;14.50;99.90
22114;DHT22;11223;49.968;9.062;2022-10-31T16:50:47;14.50;99.90
22114;DHT22;11223;49.968;9.062;2022-10-31T16:53:14;14.50;99.90
22114;DHT22;11223;49.968;9.062;2022-10-31T16:56:01;14.50;99.90
22114;DHT22;11223;49.968;9.062;2022-10-31T16:58:32;14.60;99.90
22114;DHT22;11223;49.968;9.062;2022-10-31T17:00:59;14.60;99.90
22114;DHT22;11223;49.968;9.062;2022-10-31T17:03:26;14.60;99.90
22114;DHT22;11223;49.968;9.062;2022-10-31T17:05:52;14.60;99.90
22114;DHT22;11223;49.968;9.062;2022-10-31T17:08:20;14.70;99.90
22114;DHT22;11223;49.968;9.062;2022-10-31T17:10:47;14.70;99.90
22114;DHT22;11223;49.968;9.062;2022-10-31T17:13:27;14.70;99.90
22114;DHT22;11223;49.968;9.062;2022-10-31T17:15:56;14.60;99.90
22114;DHT22;11223;49.968;9.062;2022-10-31T17:21:35;14.50;99.90
22114;DHT22;11223;49.968;9.062;2022-10-31T17:24:00;14.50;99.90
22114;DHT22;11223;49.968;9.062;2022-10-31T17:26:26;14.50;99.90
22114;DHT22;11223;49.968;9.062;2022-10-31T17:28:52;14.40;99.90
22114;DHT22;11223;49.968;9.062;2022-10-31T17:31:31;14.30;99.90
22114;DHT22;11223;49.968;9.062;2022-10-31T17:33:58;14.30;99.90
22114;DHT22;11223;49.968;9.062;2022-10-31T17:36:24;14.20;99.90
22114;DHT22;11223;49.968;9.062;2022-10-31T17:38:51;14.10;99.90
22114;DHT22;11223;49.968;9.062;2022-10-31T17:41:17;14.00;99.90
22114;DHT22;11223;49.968;9.062;2022-10-31T17:43:43;14.00;99.90
22114;DHT22;11223;49.968;9.062;2022-10-31T17:46:08;14.00;99.90
22114;DHT22;11223;49.968;9.062;2022-10-31T17:48:35;14.00;99.90
22114;DHT22;11223;49.968;9.062;2022-10-31T17:51:05;14.00;99.90
22114;DHT22;11223;49.968;9.062;2022-10-31T17:53:32;14.00;99.90
22114;DHT22;11223;49.968;9.062;2022-10-31T17:56:00;14.00;99.90
22114;DHT22;11223;49.968;9.062;2022-10-31T17:58:26;14.00;99.90
22114;DHT22;11223;49.968;9.062;2022-10-31T18:00:52;14.00;99.90
22114;DHT22;11223;49.968;9.062;2022-10-31T18:03:17;13.90;99.90